sensor_id;sensor_type;location;lat;lon;timestamp;P1;durP1;ratioP1;P2;durP2;ratioP2
58760;SDS011;44529;47.464;19.014;2022-11-10T00:00:00;125.68;;;47.20;;
58760;SDS011;44529;47.464;19.014;2022-11-10T00:03:21;121.70;;;47.20;;
58760;SDS011;44529;47.464;19.014;2022-11-10T00:06:45;110.95;;;45.97;;
58760;SDS011;44529;47.464;19.014;2022-11-10T00:10:06;114.50;;;45.17;;
58760;SDS011;44529;47.464;19.014;2022-11-10T00:13:28;107.43;;;44.90;;
58760;SDS011;44529;47.464;19.014;2022-11-10T00:16:51;122.80;;;47.70;;
58760;SDS011;44529;47.464;19.014;2022-11-10T00:20:23;113.20;;;45.15;;
58760;SDS011;44529;47.464;19.014;2022-11-10T00:23:44;115.72;;;45.58;;
58760;SDS011;44529;47.464;19.014;2022-11-10T00:27:07;118.60;;;46.17;;
58760;SDS011;44529;47.464;19.014;2022-11-10T00:30:27;106.40;;;43.72;;
58760;SDS011;44529;47.464;19.014;2022-11-10T00:33:47;115.78;;;44.58;;
58760;SDS011;44529;47.464;19.014;2022-11-10T00:37:08;121.37;;;46.42;;
58760;SDS011;44529;47.464;19.014;2022-11-10T00:40:28;117.40;;;45.83;;
58760;SDS011;44529;47.464;19.014;2022-11-10T00:43:49;112.00;;;45.08;;
58760;SDS011;44529;47.464;19.014;2022-11-10T00:47:10;124.25;;;46.97;;
58760;SDS011;44529;47.464;19.014;2022-11-10T00:50:30;119.07;;;46.92;;
58760;SDS011;44529;47.464;19.014;2022-11-10T00:53:51;109.85;;;43.85;;
58760;SDS011;44529;47.464;19.014;2022-11-10T00:57:12;111.55;;;46.97;;
58760;SDS011;44529;47.464;19.014;2022-11-10T01:00:33;115.62;;;45.15;;
58760;SDS011;44529;47.464;19.014;2022-11-10T01:03:54;118.00;;;44.03;;
58760;SDS011;44529;47.464;19.014;2022-11-10T01:10:35;119.85;;;45.22;;
58760;SDS011;44529;47.464;19.014;2022-11-10T01:13:56;116.25;;;44.75;;
58760;SDS011;44529;47.464;19.014;2022-11-10T01:17:17;123.15;;;46.20;;
58760;SDS011;44529;47.464;19.014;2022-11-10T01:20:37;113.28;;;45.88;;
58760;SDS011;44529;47.464;19.014;2022-11-10T01:23:58;123.13;;;45.35;;
58760;SDS011;44529;47.464;19.014;2022-11-10T01:27:19;109.18;;;43.92;;
58760;SDS011;44529;47.464;19.014;2022-11-10T01:30:39;125.53;;;46.47;;
58760;SDS011;44529;47.464;19.014;2022-11-10T01:34:00;126.80;;;47.53;;
58760;SDS011;44529;47.464;19.014;2022-11-10T01:37:20;104.95;;;44.63;;
58760;SDS011;44529;47.464;19.014;2022-11-10T01:40:41;124.55;;;45.38;;
58760;SDS011;44529;47.464;19.014;2022-11-10T01:44:17;115.78;;;42.30;;
58760;SDS011;44529;47.464;19.014;2022-11-10T01:47:40;124.85;;;45.17;;
58760;SDS011;44529;47.464;19.014;2022-11-10T01:51:03;119.20;;;44.80;;
58760;SDS011;44529;47.464;19.014;2022-11-10T01:54:32;106.45;;;41.88;;
58760;SDS011;44529;47.464;19.014;2022-11-10T01:57:57;79.03;;;35.75;;
58760;SDS011;44529;47.464;19.014;2022-11-10T02:01:18;70.62;;;33.53;;
58760;SDS011;44529;47.464;19.014;2022-11-10T02:04:38;65.85;;;29.58;;
58760;SDS011;44529;47.464;19.014;2022-11-10T02:08:00;65.75;;;28.95;;
58760;SDS011;44529;47.464;19.014;2022-11-10T02:11:23;55.38;;;27.83;;
58760;SDS011;44529;47.464;19.014;2022-11-10T02:18:04;57.37;;;27.43;;
58760;SDS011;44529;47.464;19.014;2022-11-10T02:21:25;55.78;;;26.70;;
58760;SDS011;44529;47.464;19.014;2022-11-10T02:24:45;57.20;;;26.70;;
58760;SDS011;44529;47.464;19.014;2022-11-10T02:28:06;55.53;;;27.75;;
58760;SDS011;44529;47.464;19.014;2022-11-10T02:31:27;55.12;;;25.92;;
58760;SDS011;44529;47.464;19.014;2022-11-10T02:34:47;51.42;;;26.98;;
58760;SDS011;44529;47.464;19.014;2022-11-10T02:38:08;58.70;;;27.27;;
58760;SDS011;44529;47.464;19.014;2022-11-10T02:41:29;57.05;;;27.13;;
58760;SDS011;44529;47.464;19.014;2022-11-10T02:44:49;54.70;;;27.97;;
58760;SDS011;44529;47.464;19.014;2022-11-10T02:48:11;53.80;;;26.60;;
58760;SDS011;44529;47.464;19.014;2022-11-10T02:51:33;54.83;;;26.95;;
58760;SDS011;44529;47.464;19.014;2022-11-10T02:54:53;50.47;;;28.17;;
58760;SDS011;44529;47.464;19.014;2022-11-10T02:58:14;60.58;;;28.52;;
58760;SDS011;44529;47.464;19.014;2022-11-10T03:01:35;56.80;;;28.87;;
58760;SDS011;44529;47.464;19.014;2022-11-10T03:08:16;55.85;;;28.42;;
58760;SDS011;44529;47.464;19.014;2022-11-10T03:11:37;58.33;;;28.27;;
58760;SDS011;44529;47.464;19.014;2022-11-10T03:14:57;56.55;;;28.42;;
58760;SDS011;44529;47.464;19.014;2022-11-10T03:18:18;52.97;;;28.75;;
58760;SDS011;44529;47.464;19.014;2022-11-10T03:25:00;57.00;;;28.47;;
58760;SDS011;44529;47.464;19.014;2022-11-10T03:28:20;54.15;;;27.48;;
58760;SDS011;44529;47.464;19.014;2022-11-10T03:31:41;52.50;;;26.60;;
58760;SDS011;44529;47.464;19.014;2022-11-10T03:35:01;57.28;;;28.35;;
58760;SDS011;44529;47.464;19.014;2022-11-10T03:38:22;55.78;;;29.20;;
58760;SDS011;44529;47.464;19.014;2022-11-10T03:41:42;51.20;;;26.90;;
58760;SDS011;44529;47.464;19.014;2022-11-10T03:45:03;58.67;;;29.67;;
58760;SDS011;44529;47.464;19.014;2022-11-10T03:48:24;51.63;;;27.87;;
58760;SDS011;44529;47.464;19.014;2022-11-10T03:51:44;60.80;;;30.27;;
58760;SDS011;44529;47.464;19.014;2022-11-10T03:55:05;63.38;;;30.65;;
58760;SDS011;44529;47.464;19.014;2022-11-10T03:58:26;60.35;;;29.30;;
58760;SDS011;44529;47.464;19.014;2022-11-10T04:01:47;77.07;;;33.72;;
58760;SDS011;44529;47.464;19.014;2022-11-10T04:05:07;76.18;;;35.17;;
58760;SDS011;44529;47.464;19.014;2022-11-10T04:08:47;71.65;;;34.88;;
58760;SDS011;44529;47.464;19.014;2022-11-10T04:12:20;71.65;;;32.30;;
58760;SDS011;44529;47.464;19.014;2022-11-10T04:15:59;78.15;;;32.75;;
58760;SDS011;44529;47.464;19.014;2022-11-10T04:19:21;77.90;;;34.85;;
58760;SDS011;44529;47.464;19.014;2022-11-10T04:22:41;76.15;;;34.03;;
58760;SDS011;44529;47.464;19.014;2022-11-10T04:26:21;81.32;;;36.95;;
58760;SDS011;44529;47.464;19.014;2022-11-10T04:29:48;78.43;;;34.13;;
58760;SDS011;44529;47.464;19.014;2022-11-10T04:33:08;64.32;;;31.48;;
58760;SDS011;44529;47.464;19.014;2022-11-10T04:36:30;62.28;;;30.62;;
58760;SDS011;44529;47.464;19.014;2022-11-10T04:39:52;56.60;;;29.00;;
58760;SDS011;44529;47.464;19.014;2022-11-10T04:43:13;60.78;;;31.15;;
58760;SDS011;44529;47.464;19.014;2022-11-10T04:46:34;63.15;;;29.63;;
58760;SDS011;44529;47.464;19.014;2022-11-10T04:49:56;64.82;;;29.40;;
58760;SDS011;44529;47.464;19.014;2022-11-10T04:53:17;64.70;;;31.27;;
58760;SDS011;44529;47.464;19.014;2022-11-10T04:56:39;54.67;;;26.87;;
58760;SDS011;44529;47.464;19.014;2022-11-10T04:59:59;46.97;;;24.77;;
58760;SDS011;44529;47.464;19.014;2022-11-10T05:03:20;38.35;;;22.37;;
58760;SDS011;44529;47.464;19.014;2022-11-10T05:06:42;37.30;;;20.05;;
58760;SDS011;44529;47.464;19.014;2022-11-10T05:10:03;31.42;;;19.33;;
58760;SDS011;44529;47.464;19.014;2022-11-10T05:13:23;32.88;;;18.85;;
58760;SDS011;44529;47.464;19.014;2022-11-10T05:16:44;29.75;;;19.05;;
58760;SDS011;44529;47.464;19.014;2022-11-10T05:20:06;31.80;;;19.35;;
58760;SDS011;44529;47.464;19.014;2022-11-10T05:23:28;33.10;;;18.77;;
58760;SDS011;44529;47.464;19.014;2022-11-10T05:26:57;36.13;;;19.73;;
58760;SDS011;44529;47.464;19.014;2022-11-10T05:30:18;32.80;;;18.30;;
58760;SDS011;44529;47.464;19.014;2022-11-10T05:33:39;34.75;;;19.17;;
58760;SDS011;44529;47.464;19.014;2022-11-10T05:37:00;31.67;;;18.58;;
58760;SDS011;44529;47.464;19.014;2022-11-10T05:40:20;32.55;;;20.02;;
58760;SDS011;44529;47.464;19.014;2022-11-10T05:43:41;33.33;;;20.52;;
58760;SDS011;44529;47.464;19.014;2022-11-10T05:47:01;39.67;;;20.67;;
58760;SDS011;44529;47.464;19.014;2022-11-10T05:50:23;36.92;;;19.75;;
58760;SDS011;44529;47.464;19.014;2022-11-10T05:53:44;36.05;;;20.33;;
58760;SDS011;44529;47.464;19.014;2022-11-10T05:57:04;34.00;;;19.60;;
58760;SDS011;44529;47.464;19.014;2022-11-10T06:00:27;35.42;;;20.37;;
58760;SDS011;44529;47.464;19.014;2022-11-10T06:03:49;35.00;;;20.20;;
58760;SDS011;44529;47.464;19.014;2022-11-10T06:07:11;34.42;;;20.05;;
58760;SDS011;44529;47.464;19.014;2022-11-10T06:10:32;33.13;;;19.87;;
58760;SDS011;44529;47.464;19.014;2022-11-10T06:13:54;31.08;;;18.92;;
58760;SDS011;44529;47.464;19.014;2022-11-10T06:17:14;35.58;;;21.00;;
58760;SDS011;44529;47.464;19.014;2022-11-10T06:20:35;34.67;;;20.33;;
58760;SDS011;44529;47.464;19.014;2022-11-10T06:23:56;35.05;;;19.52;;
58760;SDS011;44529;47.464;19.014;2022-11-10T06:27:16;34.20;;;20.55;;
58760;SDS011;44529;47.464;19.014;2022-11-10T06:30:37;33.00;;;20.77;;
58760;SDS011;44529;47.464;19.014;2022-11-10T06:33:57;39.20;;;19.80;;
58760;SDS011;44529;47.464;19.014;2022-11-10T06:37:19;36.75;;;19.27;;
58760;SDS011;44529;47.464;19.014;2022-11-10T06:40:39;39.53;;;19.75;;
58760;SDS011;44529;47.464;19.014;2022-11-10T06:44:00;35.88;;;20.48;;
58760;SDS011;44529;47.464;19.014;2022-11-10T06:47:21;40.08;;;21.42;;
58760;SDS011;44529;47.464;19.014;2022-11-10T06:50:42;37.28;;;21.58;;
58760;SDS011;44529;47.464;19.014;2022-11-10T06:54:02;40.28;;;21.92;;
58760;SDS011;44529;47.464;19.014;2022-11-10T06:57:23;40.78;;;21.30;;
58760;SDS011;44529;47.464;19.014;2022-11-10T07:00:44;40.35;;;21.87;;
58760;SDS011;44529;47.464;19.014;2022-11-10T07:04:05;41.10;;;22.70;;
58760;SDS011;44529;47.464;19.014;2022-11-10T07:07:38;36.13;;;20.83;;
58760;SDS011;44529;47.464;19.014;2022-11-10T07:10:59;37.70;;;21.50;;
58760;SDS011;44529;47.464;19.014;2022-11-10T07:14:20;36.95;;;20.27;;
58760;SDS011;44529;47.464;19.014;2022-11-10T07:17:40;37.47;;;21.08;;
58760;SDS011;44529;47.464;19.014;2022-11-10T07:21:02;38.60;;;21.75;;
58760;SDS011;44529;47.464;19.014;2022-11-10T07:24:24;43.95;;;23.52;;
58760;SDS011;44529;47.464;19.014;2022-11-10T07:27:50;43.40;;;23.90;;
58760;SDS011;44529;47.464;19.014;2022-11-10T07:31:12;43.63;;;22.80;;
58760;SDS011;44529;47.464;19.014;2022-11-10T07:34:33;50.17;;;24.98;;
58760;SDS011;44529;47.464;19.014;2022-11-10T07:37:54;50.00;;;26.02;;
58760;SDS011;44529;47.464;19.014;2022-11-10T07:41:15;48.83;;;25.58;;
58760;SDS011;44529;47.464;19.014;2022-11-10T07:44:48;48.17;;;26.08;;
58760;SDS011;44529;47.464;19.014;2022-11-10T07:48:08;49.75;;;26.23;;
58760;SDS011;44529;47.464;19.014;2022-11-10T07:54:50;50.47;;;24.55;;
58760;SDS011;44529;47.464;19.014;2022-11-10T07:58:12;46.75;;;25.02;;
58760;SDS011;44529;47.464;19.014;2022-11-10T08:01:34;47.80;;;25.75;;
58760;SDS011;44529;47.464;19.014;2022-11-10T08:04:55;40.72;;;23.95;;
58760;SDS011;44529;47.464;19.014;2022-11-10T08:08:16;52.72;;;29.08;;
58760;SDS011;44529;47.464;19.014;2022-11-10T08:11:37;41.92;;;23.87;;
58760;SDS011;44529;47.464;19.014;2022-11-10T08:14:58;46.47;;;25.62;;
58760;SDS011;44529;47.464;19.014;2022-11-10T08:18:20;45.83;;;24.58;;
58760;SDS011;44529;47.464;19.014;2022-11-10T08:21:42;44.10;;;25.35;;
58760;SDS011;44529;47.464;19.014;2022-11-10T08:25:03;42.85;;;24.35;;
58760;SDS011;44529;47.464;19.014;2022-11-10T08:28:24;41.55;;;24.27;;
58760;SDS011;44529;47.464;19.014;2022-11-10T08:31:45;42.90;;;24.85;;
58760;SDS011;44529;47.464;19.014;2022-11-10T08:38:27;43.03;;;24.12;;
58760;SDS011;44529;47.464;19.014;2022-11-10T08:41:48;38.90;;;23.62;;
58760;SDS011;44529;47.464;19.014;2022-11-10T08:45:08;41.45;;;23.95;;
58760;SDS011;44529;47.464;19.014;2022-11-10T08:48:29;44.33;;;27.15;;
58760;SDS011;44529;47.464;19.014;2022-11-10T08:55:10;41.03;;;23.63;;
58760;SDS011;44529;47.464;19.014;2022-11-10T08:58:31;39.38;;;24.17;;
58760;SDS011;44529;47.464;19.014;2022-11-10T09:01:51;41.53;;;24.00;;
58760;SDS011;44529;47.464;19.014;2022-11-10T09:05:11;43.05;;;25.65;;
58760;SDS011;44529;47.464;19.014;2022-11-10T09:08:32;40.63;;;24.85;;
58760;SDS011;44529;47.464;19.014;2022-11-10T09:15:14;41.42;;;25.12;;
58760;SDS011;44529;47.464;19.014;2022-11-10T09:18:35;38.42;;;24.02;;
58760;SDS011;44529;47.464;19.014;2022-11-10T09:21:55;36.72;;;23.35;;
58760;SDS011;44529;47.464;19.014;2022-11-10T09:25:16;40.00;;;23.33;;
58760;SDS011;44529;47.464;19.014;2022-11-10T09:28:37;38.83;;;23.08;;
58760;SDS011;44529;47.464;19.014;2022-11-10T09:31:58;39.75;;;23.67;;
58760;SDS011;44529;47.464;19.014;2022-11-10T09:35:18;37.17;;;22.62;;
58760;SDS011;44529;47.464;19.014;2022-11-10T09:38:39;37.70;;;22.40;;
58760;SDS011;44529;47.464;19.014;2022-11-10T09:41:59;37.97;;;22.62;;
58760;SDS011;44529;47.464;19.014;2022-11-10T09:48:59;37.30;;;22.70;;
58760;SDS011;44529;47.464;19.014;2022-11-10T09:52:26;42.15;;;23.45;;
58760;SDS011;44529;47.464;19.014;2022-11-10T09:55:54;40.20;;;23.77;;
58760;SDS011;44529;47.464;19.014;2022-11-10T09:59:27;33.47;;;20.40;;
58760;SDS011;44529;47.464;19.014;2022-11-10T10:02:53;36.15;;;22.45;;
58760;SDS011;44529;47.464;19.014;2022-11-10T10:06:17;34.50;;;21.65;;
58760;SDS011;44529;47.464;19.014;2022-11-10T10:09:52;36.20;;;23.27;;
58760;SDS011;44529;47.464;19.014;2022-11-10T10:17:17;36.28;;;21.73;;
58760;SDS011;44529;47.464;19.014;2022-11-10T10:25:00;32.72;;;20.48;;
58760;SDS011;44529;47.464;19.014;2022-11-10T10:28:36;33.30;;;20.95;;
58760;SDS011;44529;47.464;19.014;2022-11-10T10:31:58;35.97;;;20.45;;
58760;SDS011;44529;47.464;19.014;2022-11-10T10:35:20;33.65;;;20.65;;
58760;SDS011;44529;47.464;19.014;2022-11-10T10:38:41;34.97;;;21.40;;
58760;SDS011;44529;47.464;19.014;2022-11-10T10:42:05;33.97;;;20.48;;
58760;SDS011;44529;47.464;19.014;2022-11-10T10:45:37;36.25;;;21.42;;
58760;SDS011;44529;47.464;19.014;2022-11-10T10:49:05;35.35;;;21.77;;
58760;SDS011;44529;47.464;19.014;2022-11-10T10:56:32;36.22;;;21.48;;
58760;SDS011;44529;47.464;19.014;2022-11-10T11:03:36;39.47;;;24.60;;
58760;SDS011;44529;47.464;19.014;2022-11-10T11:06:59;41.50;;;25.77;;
58760;SDS011;44529;47.464;19.014;2022-11-10T11:10:26;48.58;;;28.08;;
58760;SDS011;44529;47.464;19.014;2022-11-10T11:13:49;44.05;;;26.98;;
58760;SDS011;44529;47.464;19.014;2022-11-10T11:17:16;42.78;;;26.25;;
58760;SDS011;44529;47.464;19.014;2022-11-10T11:20:51;46.72;;;26.58;;
58760;SDS011;44529;47.464;19.014;2022-11-10T11:35:16;46.47;;;26.08;;
58760;SDS011;44529;47.464;19.014;2022-11-10T11:56:38;43.22;;;24.92;;
58760;SDS011;44529;47.464;19.014;2022-11-10T12:00:09;42.22;;;25.02;;
58760;SDS011;44529;47.464;19.014;2022-11-10T12:11:19;42.20;;;24.77;;
58760;SDS011;44529;47.464;19.014;2022-11-10T12:14:44;40.10;;;23.23;;
58760;SDS011;44529;47.464;19.014;2022-11-10T12:18:29;38.85;;;23.45;;
58760;SDS011;44529;47.464;19.014;2022-11-10T12:25:24;39.97;;;22.50;;
58760;SDS011;44529;47.464;19.014;2022-11-10T12:28:48;37.70;;;23.02;;
58760;SDS011;44529;47.464;19.014;2022-11-10T12:32:34;36.85;;;22.42;;
58760;SDS011;44529;47.464;19.014;2022-11-10T12:36:00;39.15;;;22.30;;
58760;SDS011;44529;47.464;19.014;2022-11-10T12:40:12;38.65;;;22.23;;
58760;SDS011;44529;47.464;19.014;2022-11-10T12:46:56;44.25;;;24.48;;
58760;SDS011;44529;47.464;19.014;2022-11-10T12:53:58;43.97;;;24.87;;
58760;SDS011;44529;47.464;19.014;2022-11-10T12:57:20;49.15;;;26.37;;
58760;SDS011;44529;47.464;19.014;2022-11-10T13:00:54;45.35;;;26.00;;
58760;SDS011;44529;47.464;19.014;2022-11-10T13:04:18;47.45;;;25.08;;
58760;SDS011;44529;47.464;19.014;2022-11-10T13:07:43;46.83;;;25.73;;
58760;SDS011;44529;47.464;19.014;2022-11-10T13:11:19;45.88;;;25.40;;
58760;SDS011;44529;47.464;19.014;2022-11-10T13:14:43;47.20;;;25.17;;
58760;SDS011;44529;47.464;19.014;2022-11-10T13:18:07;42.30;;;24.27;;
58760;SDS011;44529;47.464;19.014;2022-11-10T13:28:55;47.17;;;24.52;;
58760;SDS011;44529;47.464;19.014;2022-11-10T13:35:49;44.15;;;22.73;;
58760;SDS011;44529;47.464;19.014;2022-11-10T13:39:15;45.40;;;24.65;;
58760;SDS011;44529;47.464;19.014;2022-11-10T13:46:18;39.38;;;23.08;;
58760;SDS011;44529;47.464;19.014;2022-11-10T13:57:03;43.67;;;23.15;;
58760;SDS011;44529;47.464;19.014;2022-11-10T14:00:50;44.50;;;24.27;;
58760;SDS011;44529;47.464;19.014;2022-11-10T14:04:38;42.15;;;23.87;;
58760;SDS011;44529;47.464;19.014;2022-11-10T14:08:06;45.90;;;23.58;;
58760;SDS011;44529;47.464;19.014;2022-11-10T14:11:36;43.72;;;24.95;;
58760;SDS011;44529;47.464;19.014;2022-11-10T14:15:18;46.03;;;23.98;;
58760;SDS011;44529;47.464;19.014;2022-11-10T14:18:46;43.87;;;24.92;;
58760;SDS011;44529;47.464;19.014;2022-11-10T14:22:25;43.33;;;24.48;;
58760;SDS011;44529;47.464;19.014;2022-11-10T14:29:27;47.22;;;24.95;;
58760;SDS011;44529;47.464;19.014;2022-11-10T14:32:59;46.78;;;26.05;;
58760;SDS011;44529;47.464;19.014;2022-11-10T14:36:23;44.55;;;24.33;;
58760;SDS011;44529;47.464;19.014;2022-11-10T14:39:44;41.60;;;22.33;;
58760;SDS011;44529;47.464;19.014;2022-11-10T14:43:22;43.38;;;22.83;;
58760;SDS011;44529;47.464;19.014;2022-11-10T14:46:44;41.00;;;22.83;;
58760;SDS011;44529;47.464;19.014;2022-11-10T14:54:00;45.95;;;24.05;;
58760;SDS011;44529;47.464;19.014;2022-11-10T14:57:22;45.78;;;24.05;;
58760;SDS011;44529;47.464;19.014;2022-11-10T15:04:04;43.15;;;23.85;;
58760;SDS011;44529;47.464;19.014;2022-11-10T15:07:26;37.63;;;22.73;;
58760;SDS011;44529;47.464;19.014;2022-11-10T15:10:48;46.10;;;23.52;;
58760;SDS011;44529;47.464;19.014;2022-11-10T15:14:31;39.90;;;22.83;;
58760;SDS011;44529;47.464;19.014;2022-11-10T15:17:56;44.83;;;23.70;;
58760;SDS011;44529;47.464;19.014;2022-11-10T15:21:17;47.05;;;24.70;;
58760;SDS011;44529;47.464;19.014;2022-11-10T15:24:44;41.67;;;24.25;;
58760;SDS011;44529;47.464;19.014;2022-11-10T15:31:50;42.15;;;21.42;;
58760;SDS011;44529;47.464;19.014;2022-11-10T15:38:41;38.70;;;22.25;;
58760;SDS011;44529;47.464;19.014;2022-11-10T15:42:06;40.30;;;20.55;;
58760;SDS011;44529;47.464;19.014;2022-11-10T15:45:33;40.50;;;20.27;;
58760;SDS011;44529;47.464;19.014;2022-11-10T15:48:53;38.80;;;20.17;;
58760;SDS011;44529;47.464;19.014;2022-11-10T15:52:18;38.75;;;21.52;;
58760;SDS011;44529;47.464;19.014;2022-11-10T15:55:41;37.55;;;21.35;;
58760;SDS011;44529;47.464;19.014;2022-11-10T15:59:03;38.60;;;21.70;;
58760;SDS011;44529;47.464;19.014;2022-11-10T16:02:24;35.80;;;21.30;;
58760;SDS011;44529;47.464;19.014;2022-11-10T16:05:45;37.17;;;20.92;;
58760;SDS011;44529;47.464;19.014;2022-11-10T16:09:10;33.42;;;19.08;;
58760;SDS011;44529;47.464;19.014;2022-11-10T16:12:32;33.30;;;18.75;;
58760;SDS011;44529;47.464;19.014;2022-11-10T16:15:54;34.33;;;18.08;;
58760;SDS011;44529;47.464;19.014;2022-11-10T16:19:15;29.48;;;16.85;;
58760;SDS011;44529;47.464;19.014;2022-11-10T16:22:36;34.80;;;18.52;;
58760;SDS011;44529;47.464;19.014;2022-11-10T16:25:57;32.75;;;19.17;;
58760;SDS011;44529;47.464;19.014;2022-11-10T16:29:17;30.33;;;16.83;;
58760;SDS011;44529;47.464;19.014;2022-11-10T16:32:39;32.05;;;17.08;;
58760;SDS011;44529;47.464;19.014;2022-11-10T16:36:00;29.92;;;17.17;;
58760;SDS011;44529;47.464;19.014;2022-11-10T16:39:21;28.67;;;15.85;;
58760;SDS011;44529;47.464;19.014;2022-11-10T16:42:43;28.15;;;16.05;;
58760;SDS011;44529;47.464;19.014;2022-11-10T16:46:05;29.83;;;17.58;;
58760;SDS011;44529;47.464;19.014;2022-11-10T16:49:43;29.40;;;16.70;;
58760;SDS011;44529;47.464;19.014;2022-11-10T16:53:05;27.10;;;16.05;;
58760;SDS011;44529;47.464;19.014;2022-11-10T16:56:32;27.48;;;16.25;;
58760;SDS011;44529;47.464;19.014;2022-11-10T16:59:53;25.75;;;15.65;;
58760;SDS011;44529;47.464;19.014;2022-11-10T17:06:40;26.92;;;14.90;;
58760;SDS011;44529;47.464;19.014;2022-11-10T17:10:02;23.40;;;13.65;;
58760;SDS011;44529;47.464;19.014;2022-11-10T17:16:44;23.05;;;11.52;;
58760;SDS011;44529;47.464;19.014;2022-11-10T17:20:06;16.90;;;10.05;;
58760;SDS011;44529;47.464;19.014;2022-11-10T17:23:29;17.35;;;10.52;;
58760;SDS011;44529;47.464;19.014;2022-11-10T17:26:52;19.90;;;11.65;;
58760;SDS011;44529;47.464;19.014;2022-11-10T17:30:13;21.02;;;12.77;;
58760;SDS011;44529;47.464;19.014;2022-11-10T17:36:54;24.40;;;13.75;;
58760;SDS011;44529;47.464;19.014;2022-11-10T17:40:16;27.48;;;14.80;;
58760;SDS011;44529;47.464;19.014;2022-11-10T17:43:37;27.55;;;14.48;;
58760;SDS011;44529;47.464;19.014;2022-11-10T17:47:04;24.33;;;15.30;;
58760;SDS011;44529;47.464;19.014;2022-11-10T17:50:25;25.42;;;14.75;;
58760;SDS011;44529;47.464;19.014;2022-11-10T17:53:46;29.23;;;15.20;;
58760;SDS011;44529;47.464;19.014;2022-11-10T17:57:07;23.40;;;15.40;;
58760;SDS011;44529;47.464;19.014;2022-11-10T18:00:29;23.98;;;15.25;;
58760;SDS011;44529;47.464;19.014;2022-11-10T18:03:49;23.80;;;15.10;;
58760;SDS011;44529;47.464;19.014;2022-11-10T18:07:10;21.83;;;15.20;;
58760;SDS011;44529;47.464;19.014;2022-11-10T18:10:30;24.85;;;15.60;;
58760;SDS011;44529;47.464;19.014;2022-11-10T18:13:51;25.65;;;14.98;;
58760;SDS011;44529;47.464;19.014;2022-11-10T18:17:11;23.10;;;13.70;;
58760;SDS011;44529;47.464;19.014;2022-11-10T18:20:32;28.90;;;14.43;;
58760;SDS011;44529;47.464;19.014;2022-11-10T18:23:53;22.98;;;14.40;;
58760;SDS011;44529;47.464;19.014;2022-11-10T18:27:13;25.65;;;13.85;;
58760;SDS011;44529;47.464;19.014;2022-11-10T18:30:34;25.62;;;14.98;;
58760;SDS011;44529;47.464;19.014;2022-11-10T18:33:54;25.62;;;14.38;;
58760;SDS011;44529;47.464;19.014;2022-11-10T18:37:15;24.50;;;14.75;;
58760;SDS011;44529;47.464;19.014;2022-11-10T18:40:36;21.27;;;14.35;;
58760;SDS011;44529;47.464;19.014;2022-11-10T18:43:57;27.15;;;14.98;;
58760;SDS011;44529;47.464;19.014;2022-11-10T18:47:18;25.52;;;15.60;;
58760;SDS011;44529;47.464;19.014;2022-11-10T18:50:39;25.85;;;14.35;;
58760;SDS011;44529;47.464;19.014;2022-11-10T18:53:59;22.90;;;15.38;;
58760;SDS011;44529;47.464;19.014;2022-11-10T18:57:20;25.58;;;15.40;;
58760;SDS011;44529;47.464;19.014;2022-11-10T19:00:41;26.52;;;15.88;;
58760;SDS011;44529;47.464;19.014;2022-11-10T19:04:01;23.17;;;14.95;;
58760;SDS011;44529;47.464;19.014;2022-11-10T19:07:22;24.95;;;15.00;;
58760;SDS011;44529;47.464;19.014;2022-11-10T19:10:42;22.92;;;14.55;;
58760;SDS011;44529;47.464;19.014;2022-11-10T19:14:03;24.90;;;15.43;;
58760;SDS011;44529;47.464;19.014;2022-11-10T19:17:24;23.60;;;13.35;;
58760;SDS011;44529;47.464;19.014;2022-11-10T19:20:44;21.05;;;13.48;;
58760;SDS011;44529;47.464;19.014;2022-11-10T19:24:05;18.60;;;12.43;;
58760;SDS011;44529;47.464;19.014;2022-11-10T19:30:47;19.42;;;12.10;;
58760;SDS011;44529;47.464;19.014;2022-11-10T19:34:07;17.77;;;12.10;;
58760;SDS011;44529;47.464;19.014;2022-11-10T19:37:27;23.35;;;13.73;;
58760;SDS011;44529;47.464;19.014;2022-11-10T19:40:53;19.77;;;12.90;;
58760;SDS011;44529;47.464;19.014;2022-11-10T19:44:14;17.25;;;12.37;;
58760;SDS011;44529;47.464;19.014;2022-11-10T19:47:35;18.25;;;12.90;;
58760;SDS011;44529;47.464;19.014;2022-11-10T19:50:56;22.45;;;13.80;;
58760;SDS011;44529;47.464;19.014;2022-11-10T19:54:17;20.92;;;13.05;;
58760;SDS011;44529;47.464;19.014;2022-11-10T19:57:38;20.73;;;13.32;;
58760;SDS011;44529;47.464;19.014;2022-11-10T20:00:59;27.20;;;15.48;;
58760;SDS011;44529;47.464;19.014;2022-11-10T20:04:21;24.73;;;14.80;;
58760;SDS011;44529;47.464;19.014;2022-11-10T20:07:42;28.12;;;17.65;;
58760;SDS011;44529;47.464;19.014;2022-11-10T20:11:28;28.70;;;16.80;;
58760;SDS011;44529;47.464;19.014;2022-11-10T20:14:48;29.98;;;18.67;;
58760;SDS011;44529;47.464;19.014;2022-11-10T20:18:09;30.02;;;18.77;;
58760;SDS011;44529;47.464;19.014;2022-11-10T20:21:30;33.10;;;19.58;;
58760;SDS011;44529;47.464;19.014;2022-11-10T20:24:51;32.50;;;20.10;;
58760;SDS011;44529;47.464;19.014;2022-11-10T20:28:11;29.10;;;18.60;;
58760;SDS011;44529;47.464;19.014;2022-11-10T20:31:33;33.10;;;19.52;;
58760;SDS011;44529;47.464;19.014;2022-11-10T20:34:56;31.92;;;20.20;;
58760;SDS011;44529;47.464;19.014;2022-11-10T20:38:16;32.30;;;19.27;;
58760;SDS011;44529;47.464;19.014;2022-11-10T20:41:37;33.00;;;19.25;;
58760;SDS011;44529;47.464;19.014;2022-11-10T20:44:58;29.25;;;18.45;;
58760;SDS011;44529;47.464;19.014;2022-11-10T20:48:18;32.03;;;19.10;;
58760;SDS011;44529;47.464;19.014;2022-11-10T20:51:39;29.65;;;18.73;;
58760;SDS011;44529;47.464;19.014;2022-11-10T20:55:00;32.25;;;19.33;;
58760;SDS011;44529;47.464;19.014;2022-11-10T20:58:21;29.90;;;19.05;;
58760;SDS011;44529;47.464;19.014;2022-11-10T21:01:41;36.78;;;20.08;;
58760;SDS011;44529;47.464;19.014;2022-11-10T21:05:02;37.50;;;20.65;;
58760;SDS011;44529;47.464;19.014;2022-11-10T21:08:23;30.37;;;19.52;;
58760;SDS011;44529;47.464;19.014;2022-11-10T21:11:43;32.60;;;19.87;;
58760;SDS011;44529;47.464;19.014;2022-11-10T21:15:23;32.20;;;19.87;;
58760;SDS011;44529;47.464;19.014;2022-11-10T21:18:44;32.58;;;19.95;;
58760;SDS011;44529;47.464;19.014;2022-11-10T21:22:04;33.83;;;20.50;;
58760;SDS011;44529;47.464;19.014;2022-11-10T21:25:24;30.42;;;18.95;;
58760;SDS011;44529;47.464;19.014;2022-11-10T21:28:45;30.83;;;19.42;;
58760;SDS011;44529;47.464;19.014;2022-11-10T21:35:26;29.20;;;18.40;;
58760;SDS011;44529;47.464;19.014;2022-11-10T21:38:47;28.30;;;16.98;;
58760;SDS011;44529;47.464;19.014;2022-11-10T21:45:28;23.98;;;15.80;;
58760;SDS011;44529;47.464;19.014;2022-11-10T21:48:49;25.05;;;17.08;;
58760;SDS011;44529;47.464;19.014;2022-11-10T21:52:10;28.27;;;17.00;;
58760;SDS011;44529;47.464;19.014;2022-11-10T21:55:31;25.23;;;16.52;;
58760;SDS011;44529;47.464;19.014;2022-11-10T21:58:51;27.10;;;17.45;;
58760;SDS011;44529;47.464;19.014;2022-11-10T22:02:12;25.25;;;16.12;;